Time;durP1;ratioP1;P1;durP2;ratioP2;P2;SDS_P1;SDS_P2;PMS_P1;PMS_P2;Temp;Humidity;BMP_temperature;BMP_pressure;BME280_temperature;BME280_humidity;BME280_pressure;Samples;Min_cycle;Max_cycle;Signal;HPM_P1;HPM_P2
2021/07/26 00:01:36;;;;;;;5.38;4.88;;;21.50;99.90;;;;;;5074143;28;20247;-76
2021/07/26 00:04:03;;;;;;;7.40;4.00;;;21.30;99.90;;;;;;5074737;28;20217;-76
2021/07/26 00:06:30;;;;;;;7.38;4.90;;;21.40;99.90;;;;;;5073136;28;20205;-77
2021/07/26 00:08:57;;;;;;;7.63;5.20;;;21.40;99.90;;;;;;5073649;28;20222;-76
2021/07/26 00:11:24;;;;;;;6.03;4.45;;;21.20;99.90;;;;;;5073073;28;20206;-76
2021/07/26 00:13:51;;;;;;;6.57;5.22;;;21.20;99.90;;;;;;5073808;28;20205;-76
2021/07/26 00:16:18;;;;;;;6.93;5.00;;;21.30;99.90;;;;;;5073172;28;20279;-76
2021/07/26 00:18:46;;;;;;;5.72;5.00;;;21.30;99.90;;;;;;5073685;28;20255;-77
2021/07/26 00:21:13;;;;;;;5.28;4.75;;;21.30;99.90;;;;;;5072817;28;20220;-76
2021/07/26 00:23:40;;;;;;;6.47;5.90;;;21.20;99.90;;;;;;5073485;28;20260;-76
2021/07/26 00:26:07;;;;;;;10.73;6.35;;;21.20;99.90;;;;;;5073371;28;20277;-76
2021/07/26 00:28:34;;;;;;;7.80;6.20;;;21.10;99.90;;;;;;5072940;28;20587;-76
2021/07/26 00:31:01;;;;;;;7.35;6.05;;;21.10;99.90;;;;;;5073383;28;20203;-76
2021/07/26 00:34:20;;;;;;;8.00;6.10;;;21.10;99.90;;;;;;5072857;28;20740;-76
2021/07/26 00:36:50;;;;;;;7.05;5.50;;;21.10;99.90;;;;;;5011093;28;20302;-76
2021/07/26 00:39:19;;;;;;;7.47;6.40;;;21.10;99.90;;;;;;5068332;28;20206;-76
2021/07/26 00:41:47;;;;;;;6.90;6.20;;;21.00;99.90;;;;;;5073034;28;20629;-76
2021/07/26 00:44:15;;;;;;;6.70;6.03;;;21.00;99.90;;;;;;5072703;28;20198;-76
2021/07/26 00:46:42;;;;;;;11.93;7.47;;;20.90;99.90;;;;;;5072789;28;20300;-76
2021/07/26 00:49:11;;;;;;;8.85;6.32;;;20.90;99.90;;;;;;5072697;28;20283;-76
2021/07/26 00:51:40;;;;;;;9.00;6.32;;;20.90;99.90;;;;;;5073049;28;20210;-76
2021/07/26 00:54:09;;;;;;;7.55;6.80;;;20.80;99.90;;;;;;5072932;28;20724;-76
2021/07/26 00:56:38;;;;;;;10.07;6.35;;;20.80;99.90;;;;;;5073158;28;20244;-76
2021/07/26 00:59:05;;;;;;;7.18;6.32;;;20.80;99.90;;;;;;5073275;28;20214;-76
2021/07/26 01:01:33;;;;;;;11.05;6.95;;;20.80;99.90;;;;;;5058697;28;20263;-76
2021/07/26 01:04:00;;;;;;;8.18;6.82;;;20.80;99.90;;;;;;5073050;28;20210;-76
2021/07/26 01:06:27;;;;;;;9.63;7.05;;;20.70;99.90;;;;;;5072295;28;20198;-76
2021/07/26 01:08:54;;;;;;;9.90;7.15;;;20.80;99.90;;;;;;5072391;28;20206;-76
2021/07/26 01:11:23;;;;;;;10.35;7.57;;;20.80;99.90;;;;;;5072236;28;20268;-76
2021/07/26 01:13:51;;;;;;;7.82;6.97;;;20.80;99.90;;;;;;5072573;28;20218;-76
2021/07/26 01:16:18;;;;;;;9.05;8.02;;;20.80;99.90;;;;;;5072140;28;20202;-76
2021/07/26 01:18:45;;;;;;;9.40;6.90;;;20.70;99.90;;;;;;5072740;28;20210;-77
2021/07/26 01:21:14;;;;;;;8.30;7.35;;;20.70;99.90;;;;;;5071869;28;20214;-76
2021/07/26 01:23:43;;;;;;;10.77;7.43;;;20.70;99.90;;;;;;5072148;28;20214;-76
2021/07/26 01:26:12;;;;;;;10.77;7.78;;;20.60;99.90;;;;;;5071619;28;20657;-76
2021/07/26 01:28:41;;;;;;;8.57;7.65;;;20.60;99.90;;;;;;5071887;28;20207;-76
2021/07/26 01:31:10;;;;;;;10.15;8.00;;;20.60;99.90;;;;;;5072466;28;20667;-76
2021/07/26 01:33:37;;;;;;;15.70;8.00;;;20.60;99.90;;;;;;5072585;28;20580;-76
2021/07/26 01:36:05;;;;;;;13.57;7.43;;;20.60;99.90;;;;;;5082724;28;20201;-76
2021/07/26 01:38:33;;;;;;;10.90;7.57;;;20.70;99.90;;;;;;5091693;28;20202;-76
2021/07/26 01:41:03;;;;;;;8.55;7.72;;;20.60;99.90;;;;;;5092432;28;20201;-76
2021/07/26 01:43:34;;;;;;;9.00;7.40;;;20.50;99.90;;;;;;5092013;28;20212;-77
2021/07/26 01:46:12;;;;;;;13.02;8.77;;;20.50;99.90;;;;;;5092347;28;20205;-76
2021/07/26 01:48:49;;;;;;;9.48;7.57;;;20.50;99.90;;;;;;5078021;28;20205;-76
2021/07/26 01:51:19;;;;;;;7.80;7.03;;;20.50;99.90;;;;;;5091343;28;20221;-76
2021/07/26 01:53:48;;;;;;;12.25;7.53;;;20.60;99.90;;;;;;5091282;28;20205;-76
2021/07/26 01:56:15;;;;;;;10.68;7.35;;;20.50;99.90;;;;;;5078962;28;20734;-76
2021/07/26 01:58:43;;;;;;;8.32;7.40;;;20.50;99.90;;;;;;5089568;28;20709;-76
2021/07/26 02:01:10;;;;;;;8.82;7.85;;;20.50;99.90;;;;;;5091465;28;20296;-76
2021/07/26 02:03:37;;;;;;;9.55;7.55;;;20.50;99.90;;;;;;5091975;28;20251;-76
2021/07/26 02:06:04;;;;;;;11.20;8.45;;;20.40;99.90;;;;;;5092016;28;20213;-77
2021/07/26 02:08:31;;;;;;;7.18;6.38;;;20.40;99.90;;;;;;5090594;28;20669;-77
2021/07/26 02:10:59;;;;;;;9.43;7.88;;;20.40;99.90;;;;;;5091621;28;21057;-77
2021/07/26 02:13:26;;;;;;;13.48;8.07;;;20.40;99.90;;;;;;5077704;28;20260;-76
2021/07/26 02:15:53;;;;;;;15.00;8.77;;;20.40;99.90;;;;;;5090844;28;20615;-76
2021/07/26 02:18:20;;;;;;;9.88;7.65;;;20.40;99.90;;;;;;5090955;28;20255;-77
2021/07/26 02:20:47;;;;;;;10.75;8.43;;;20.30;99.90;;;;;;5091369;28;20254;-77
2021/07/26 02:23:14;;;;;;;11.50;7.53;;;20.30;99.90;;;;;;5091061;28;20205;-76
2021/07/26 02:25:41;;;;;;;8.48;7.20;;;20.30;99.90;;;;;;5091095;28;20217;-77
2021/07/26 02:28:09;;;;;;;9.20;8.40;;;20.30;99.90;;;;;;5091831;28;20274;-76
2021/07/26 02:30:37;;;;;;;10.93;7.40;;;20.30;99.90;;;;;;5091302;28;20239;-76
2021/07/26 02:33:04;;;;;;;10.95;7.88;;;20.20;99.90;;;;;;5091710;28;20212;-77
2021/07/26 02:35:31;;;;;;;11.15;8.25;;;20.20;99.90;;;;;;5090693;28;20684;-77
2021/07/26 02:37:58;;;;;;;8.95;7.82;;;20.10;99.90;;;;;;5090889;28;20286;-77
2021/07/26 02:40:27;;;;;;;12.60;8.10;;;20.10;99.90;;;;;;5090621;28;20743;-77
2021/07/26 02:42:55;;;;;;;11.07;7.90;;;20.10;99.90;;;;;;5090913;28;20209;-77
2021/07/26 02:45:23;;;;;;;9.43;7.38;;;20.00;99.90;;;;;;5090675;28;20205;-76
2021/07/26 02:47:50;;;;;;;8.93;8.13;;;19.90;99.90;;;;;;5090719;28;20742;-76
2021/07/26 02:50:17;;;;;;;10.98;8.68;;;19.90;99.90;;;;;;5090328;28;20632;-76
2021/07/26 02:52:44;;;;;;;8.25;7.53;;;20.10;99.90;;;;;;5090985;28;20676;-76
2021/07/26 02:55:12;;;;;;;11.13;8.00;;;20.10;99.90;;;;;;5090635;28;20661;-76
2021/07/26 02:57:39;;;;;;;13.77;8.15;;;20.10;99.90;;;;;;5090849;28;20201;-76
2021/07/26 03:00:08;;;;;;;11.65;8.27;;;20.00;99.90;;;;;;5090771;28;20206;-77
2021/07/26 03:02:36;;;;;;;10.68;8.55;;;19.90;99.90;;;;;;5091424;28;20205;-75
2021/07/26 03:05:04;;;;;;;10.45;9.07;;;19.90;99.90;;;;;;5090508;28;20617;-75
2021/07/26 03:07:32;;;;;;;12.02;8.43;;;19.80;99.90;;;;;;5090483;28;20210;-75
2021/07/26 03:09:59;;;;;;;12.18;7.78;;;19.80;99.90;;;;;;5090424;28;20298;-75
2021/07/26 03:12:26;;;;;;;10.20;7.63;;;19.80;99.90;;;;;;5090317;28;20278;-76
2021/07/26 03:14:53;;;;;;;10.00;7.68;;;19.70;99.90;;;;;;5090725;28;20201;-75
2021/07/26 03:17:24;;;;;;;8.63;7.63;;;19.60;99.90;;;;;;5090521;28;20262;-75
2021/07/26 03:19:53;;;;;;;10.07;8.70;;;19.70;99.90;;;;;;5090589;28;20247;-75
2021/07/26 03:22:52;;;;;;;10.05;8.73;;;19.70;99.90;;;;;;5089921;28;20630;-75
2021/07/26 03:25:20;;;;;;;10.32;8.07;;;19.60;99.90;;;;;;5089818;28;20217;-75
2021/07/26 03:27:48;;;;;;;12.13;8.70;;;19.60;99.90;;;;;;5090865;28;20202;-75
2021/07/26 03:30:16;;;;;;;9.05;8.15;;;19.60;99.90;;;;;;5089973;28;20235;-75
2021/07/26 03:32:43;;;;;;;10.45;9.27;;;19.50;99.90;;;;;;5090598;28;20251;-75
2021/07/26 03:35:13;;;;;;;10.90;8.82;;;19.50;99.90;;;;;;5089717;28;20631;-75
2021/07/26 03:37:40;;;;;;;10.35;7.78;;;19.40;99.90;;;;;;5090076;28;20210;-75
2021/07/26 03:40:08;;;;;;;10.27;8.13;;;19.60;99.90;;;;;;5091130;28;20213;-76
2021/07/26 03:42:35;;;;;;;11.25;8.98;;;19.50;99.90;;;;;;5090158;28;20700;-75
2021/07/26 03:45:03;;;;;;;11.00;8.05;;;19.40;99.90;;;;;;5090629;28;20201;-75
2021/07/26 03:47:30;;;;;;;12.45;9.13;;;19.40;99.90;;;;;;5089888;28;20266;-75
2021/07/26 03:49:57;;;;;;;13.02;8.73;;;19.30;99.90;;;;;;5089632;28;20701;-75
2021/07/26 03:52:25;;;;;;;9.07;8.15;;;19.40;99.90;;;;;;5090023;28;20622;-75
2021/07/26 03:54:55;;;;;;;10.82;8.45;;;19.30;99.90;;;;;;5090027;28;20205;-75
2021/07/26 03:57:22;;;;;;;12.63;9.10;;;19.30;99.90;;;;;;5090032;28;20306;-75
2021/07/26 03:59:49;;;;;;;10.48;8.68;;;19.30;99.90;;;;;;5090128;28;20810;-75
2021/07/26 04:02:16;;;;;;;9.55;7.70;;;19.40;99.90;;;;;;5090058;28;20205;-77
2021/07/26 04:04:43;;;;;;;12.82;8.80;;;19.30;99.90;;;;;;5090063;28;20248;-77
2021/07/26 04:07:16;;;;;;;10.35;8.85;;;19.20;99.90;;;;;;5090275;28;20212;-76
2021/07/26 04:09:47;;;;;;;16.02;8.82;;;19.20;99.90;;;;;;5090134;28;20247;-76
2021/07/26 04:12:19;;;;;;;9.10;8.05;;;19.20;99.90;;;;;;5062151;28;20206;-76
2021/07/26 04:14:46;;;;;;;13.45;9.35;;;19.20;99.90;;;;;;5076632;28;20305;-76
2021/07/26 04:17:13;;;;;;;13.18;8.15;;;19.30;99.90;;;;;;5088769;28;20303;-76
2021/07/26 04:19:40;;;;;;;13.77;9.25;;;19.20;99.90;;;;;;5090051;28;20625;-76
2021/07/26 04:22:07;;;;;;;9.57;7.90;;;19.10;99.90;;;;;;5091691;28;20251;-76
2021/07/26 04:24:34;;;;;;;13.52;8.35;;;19.10;99.90;;;;;;5093515;28;20616;-76
2021/07/26 04:27:02;;;;;;;14.75;9.40;;;19.20;99.90;;;;;;5093641;28;20266;-76
2021/07/26 04:29:29;;;;;;;12.00;9.02;;;19.20;99.90;;;;;;5084500;28;20276;-76
2021/07/26 04:31:56;;;;;;;10.75;9.68;;;19.20;99.90;;;;;;5087827;28;20237;-76
2021/07/26 04:34:23;;;;;;;13.73;9.82;;;19.20;99.90;;;;;;5093168;28;20205;-76
2021/07/26 04:36:50;;;;;;;10.48;7.70;;;19.20;99.90;;;;;;5093731;28;20209;-76
2021/07/26 04:39:18;;;;;;;10.23;8.70;;;19.10;99.90;;;;;;5093049;28;20231;-76
2021/07/26 04:41:45;;;;;;;13.32;8.02;;;19.20;99.90;;;;;;5093555;28;20216;-76
2021/07/26 04:44:13;;;;;;;13.18;9.27;;;19.10;99.90;;;;;;5092719;28;20229;-76
2021/07/26 04:46:40;;;;;;;10.57;9.38;;;19.10;99.90;;;;;;5078984;28;20209;-76
2021/07/26 04:49:07;;;;;;;11.30;8.98;;;19.10;99.90;;;;;;5093846;28;20209;-77
2021/07/26 04:51:34;;;;;;;10.98;9.30;;;19.10;99.90;;;;;;5088643;28;20295;-75
2021/07/26 04:54:01;;;;;;;12.38;8.35;;;19.20;99.90;;;;;;5083263;28;20255;-76
2021/07/26 04:56:28;;;;;;;12.07;8.82;;;19.10;99.90;;;;;;5089669;28;20648;-75
2021/07/26 04:58:55;;;;;;;11.27;9.02;;;19.00;99.90;;;;;;5081522;28;20262;-75
2021/07/26 05:01:23;;;;;;;9.88;8.88;;;19.00;99.90;;;;;;5092364;28;20209;-77
2021/07/26 05:03:50;;;;;;;9.98;8.05;;;19.00;99.90;;;;;;5093230;28;20210;-77
2021/07/26 05:06:18;;;;;;;13.95;8.30;;;19.00;99.90;;;;;;5092606;28;20206;-76
2021/07/26 05:08:46;;;;;;;10.55;8.15;;;19.10;99.90;;;;;;5092906;28;20642;-76
2021/07/26 05:11:13;;;;;;;15.35;9.15;;;19.10;99.90;;;;;;5092284;28;20312;-77
2021/07/26 05:13:40;;;;;;;9.77;8.52;;;19.10;99.90;;;;;;5092655;28;20262;-76
2021/07/26 05:16:07;;;;;;;12.50;10.23;;;19.20;99.90;;;;;;5093172;28;20270;-76
2021/07/26 05:18:35;;;;;;;10.95;9.50;;;19.20;99.90;;;;;;5092542;28;20205;-76
2021/07/26 05:21:02;;;;;;;9.40;8.40;;;19.10;99.90;;;;;;5092529;28;20205;-76
2021/07/26 05:23:29;;;;;;;12.45;9.43;;;19.20;99.90;;;;;;5091860;28;20213;-76
2021/07/26 05:25:56;;;;;;;14.13;9.02;;;19.10;99.90;;;;;;5085371;28;20218;-75
2021/07/26 05:28:23;;;;;;;11.48;10.15;;;19.20;99.90;;;;;;5085273;28;20270;-76
2021/07/26 05:30:50;;;;;;;11.43;8.18;;;19.20;99.90;;;;;;5091785;28;20312;-75
2021/07/26 05:33:17;;;;;;;11.70;9.35;;;19.20;99.90;;;;;;5090708;28;20255;-76
2021/07/26 05:35:45;;;;;;;14.13;8.93;;;19.10;99.90;;;;;;5092201;28;20288;-75
2021/07/26 05:38:12;;;;;;;14.52;10.07;;;19.20;99.90;;;;;;5091791;28;20209;-76
2021/07/26 05:40:41;;;;;;;14.02;9.52;;;19.20;99.90;;;;;;5092067;28;20730;-75
2021/07/26 05:43:10;;;;;;;13.60;8.57;;;19.30;99.90;;;;;;5092583;28;20197;-76
2021/07/26 05:45:38;;;;;;;13.95;9.57;;;19.40;99.90;;;;;;5092508;28;20228;-76
2021/07/26 05:48:06;;;;;;;10.65;8.77;;;19.40;99.90;;;;;;5092381;28;20236;-76
2021/07/26 05:50:33;;;;;;;9.98;8.45;;;19.40;99.90;;;;;;5091674;28;20202;-76
2021/07/26 05:53:05;;;;;;;12.00;9.90;;;19.40;99.90;;;;;;5091670;28;20206;-76
2021/07/26 05:55:32;;;;;;;14.88;9.50;;;19.50;99.90;;;;;;5091412;28;20205;-75
2021/07/26 05:58:01;;;;;;;14.98;10.43;;;19.60;99.90;;;;;;5091994;28;20215;-75
2021/07/26 06:00:36;;;;;;;14.23;9.32;;;19.70;99.90;;;;;;5091210;28;20258;-76
2021/07/26 06:03:03;;;;;;;11.77;8.75;;;19.80;99.90;;;;;;5091902;28;20205;-76
2021/07/26 06:05:30;;;;;;;11.93;9.18;;;19.90;99.90;;;;;;5091484;28;20197;-76
2021/07/26 06:07:57;;;;;;;12.40;8.35;;;19.80;99.90;;;;;;5091786;28;20208;-76
2021/07/26 06:10:25;;;;;;;9.90;8.25;;;19.80;99.90;;;;;;5090842;28;20718;-76
2021/07/26 06:12:54;;;;;;;16.73;9.43;;;19.80;99.90;;;;;;5091688;28;20243;-76
2021/07/26 06:15:21;;;;;;;11.55;9.13;;;19.70;99.90;;;;;;5090858;28;20468;-76
2021/07/26 06:17:48;;;;;;;13.38;8.75;;;19.70;99.90;;;;;;5091468;28;20205;-76
2021/07/26 06:20:15;;;;;;;10.95;9.07;;;19.70;99.90;;;;;;5091091;28;20209;-76
2021/07/26 06:22:42;;;;;;;10.63;8.52;;;19.90;99.90;;;;;;5091480;28;20209;-75
2021/07/26 06:25:12;;;;;;;10.40;9.25;;;20.10;99.90;;;;;;5091273;28;20214;-75
2021/07/26 06:27:41;;;;;;;13.38;8.85;;;20.30;99.90;;;;;;5091252;28;20209;-76
2021/07/26 06:30:08;;;;;;;14.77;9.55;;;20.20;99.90;;;;;;5091277;28;20205;-76
2021/07/26 06:32:36;;;;;;;14.45;9.00;;;20.00;99.90;;;;;;5091550;28;20320;-76
2021/07/26 06:35:05;;;;;;;11.77;9.73;;;20.10;99.90;;;;;;5091821;28;20210;-76
2021/07/26 06:37:32;;;;;;;12.32;9.68;;;20.00;99.90;;;;;;5090786;28;20213;-75
2021/07/26 06:39:59;;;;;;;12.05;9.52;;;19.90;99.90;;;;;;5091314;28;20214;-76
2021/07/26 06:42:26;;;;;;;12.63;9.35;;;20.00;99.90;;;;;;5087579;28;20222;-76
2021/07/26 06:44:54;;;;;;;15.43;9.43;;;20.00;99.90;;;;;;5089745;28;20201;-76
2021/07/26 06:47:21;;;;;;;13.73;8.88;;;19.80;99.90;;;;;;5090658;28;20753;-76
2021/07/26 06:49:48;;;;;;;13.65;9.23;;;19.80;99.90;;;;;;5090956;28;20201;-76
2021/07/26 06:52:15;;;;;;;10.98;8.50;;;20.00;99.90;;;;;;5090762;28;20298;-76
2021/07/26 06:54:42;;;;;;;12.68;7.63;;;20.30;99.90;;;;;;5090939;28;20205;-76
2021/07/26 06:57:09;;;;;;;11.07;9.05;;;20.20;99.90;;;;;;5090649;28;20625;-76
2021/07/26 06:59:36;;;;;;;10.32;8.43;;;20.20;99.90;;;;;;5091020;28;20262;-75
2021/07/26 07:02:04;;;;;;;11.23;9.07;;;20.30;99.90;;;;;;5091298;28;20201;-75
2021/07/26 07:04:31;;;;;;;15.55;8.60;;;20.30;99.90;;;;;;5090305;28;20673;-76
2021/07/26 07:06:59;;;;;;;12.13;8.57;;;20.40;99.90;;;;;;5090649;28;20208;-76
2021/07/26 07:09:26;;;;;;;16.35;8.82;;;20.30;99.90;;;;;;5090568;28;20212;-75
2021/07/26 07:11:53;;;;;;;13.15;9.30;;;20.20;99.90;;;;;;5090028;28;20229;-76
2021/07/26 07:14:20;;;;;;;11.95;8.32;;;20.20;99.90;;;;;;5090605;28;20205;-75
2021/07/26 07:16:47;;;;;;;10.73;8.07;;;20.20;99.90;;;;;;5090296;28;20580;-75
2021/07/26 07:19:15;;;;;;;8.95;8.05;;;20.10;99.90;;;;;;5090168;28;20201;-75
2021/07/26 07:21:42;;;;;;;11.65;8.45;;;20.20;99.90;;;;;;5090290;28;20212;-75
2021/07/26 07:24:09;;;;;;;10.93;9.00;;;20.30;99.90;;;;;;5090820;28;20204;-75
2021/07/26 07:26:36;;;;;;;12.05;8.95;;;20.50;99.90;;;;;;5090413;28;20217;-77
2021/07/26 07:29:03;;;;;;;9.23;7.00;;;20.70;99.90;;;;;;5090435;28;20259;-76
2021/07/26 07:31:34;;;;;;;14.30;8.93;;;20.60;99.90;;;;;;5089983;28;20229;-76
2021/07/26 07:34:01;;;;;;;12.05;9.38;;;20.70;99.90;;;;;;5075978;28;20259;-75
2021/07/26 07:36:29;;;;;;;11.05;7.65;;;20.60;99.90;;;;;;5090284;28;20631;-75
2021/07/26 07:38:59;;;;;;;19.00;9.30;;;20.50;99.90;;;;;;5090085;28;20209;-75
2021/07/26 07:41:26;;;;;;;10.77;8.52;;;20.60;99.90;;;;;;5090100;28;20235;-76
2021/07/26 07:43:53;;;;;;;13.68;7.60;;;20.70;99.90;;;;;;5090399;28;20205;-75
2021/07/26 07:46:21;;;;;;;12.63;7.50;;;20.70;99.90;;;;;;5089768;28;20197;-75
2021/07/26 07:48:48;;;;;;;9.88;8.20;;;20.70;99.90;;;;;;5090340;28;20631;-76
2021/07/26 07:51:17;;;;;;;8.88;7.22;;;20.60;99.90;;;;;;5089851;28;20228;-76
2021/07/26 07:53:47;;;;;;;9.10;7.63;;;20.50;99.90;;;;;;5090212;28;20723;-76
2021/07/26 07:56:14;;;;;;;9.18;8.27;;;20.50;99.90;;;;;;5089866;28;20572;-76
2021/07/26 07:58:41;;;;;;;11.93;8.70;;;20.50;99.90;;;;;;5094203;28;20631;-75
2021/07/26 08:01:08;;;;;;;9.65;8.30;;;20.40;99.90;;;;;;5094258;28;20665;-76
2021/07/26 08:03:35;;;;;;;8.90;8.00;;;20.30;99.90;;;;;;5094326;28;20206;-76
2021/07/26 08:06:02;;;;;;;11.70;8.10;;;20.30;99.90;;;;;;5082548;28;20263;-76
2021/07/26 08:08:30;;;;;;;13.32;8.50;;;20.40;99.90;;;;;;5091121;28;20292;-76
2021/07/26 08:10:59;;;;;;;11.35;8.45;;;20.50;99.90;;;;;;5093940;28;20676;-76
2021/07/26 08:13:27;;;;;;;9.43;8.48;;;20.70;99.90;;;;;;5093530;28;20209;-75
2021/07/26 08:15:56;;;;;;;11.00;7.38;;;20.80;99.90;;;;;;5093984;28;20201;-76
2021/07/26 08:18:24;;;;;;;13.52;8.35;;;21.10;99.90;;;;;;5093504;28;20210;-75
2021/07/26 08:20:52;;;;;;;10.23;9.23;;;21.30;99.90;;;;;;5093886;28;20210;-76
2021/07/26 08:23:19;;;;;;;9.23;8.07;;;21.60;99.90;;;;;;5093428;28;20730;-76
2021/07/26 08:25:46;;;;;;;12.70;7.22;;;22.30;99.90;;;;;;5093220;28;20576;-75
2021/07/26 08:28:15;;;;;;;11.68;8.05;;;22.70;99.90;;;;;;5093483;28;20202;-76
2021/07/26 08:30:43;;;;;;;9.65;7.72;;;22.40;99.90;;;;;;5093494;28;20201;-76
2021/07/26 08:33:10;;;;;;;10.18;8.27;;;21.90;99.90;;;;;;5092930;28;20237;-75
2021/07/26 08:35:38;;;;;;;10.20;7.82;;;21.80;99.90;;;;;;5093834;28;20259;-76
2021/07/26 08:38:05;;;;;;;10.85;7.97;;;21.60;99.90;;;;;;5093897;28;20677;-76
2021/07/26 08:40:33;;;;;;;9.02;8.10;;;21.70;99.90;;;;;;5092839;28;20214;-76
2021/07/26 08:43:04;;;;;;;11.52;8.02;;;21.90;99.90;;;;;;5089289;28;20677;-75
2021/07/26 08:45:32;;;;;;;10.00;7.03;;;22.10;99.90;;;;;;5093126;28;20296;-76
2021/07/26 08:48:04;;;;;;;10.07;7.30;;;22.60;99.90;;;;;;5092963;28;20248;-75
2021/07/26 08:50:33;;;;;;;14.10;8.52;;;23.30;99.90;;;;;;5092987;28;20296;-75
2021/07/26 08:53:03;;;;;;;10.90;8.70;;;23.40;99.90;;;;;;5092967;28;20239;-75
2021/07/26 08:55:32;;;;;;;11.18;8.80;;;22.50;99.90;;;;;;5092799;28;20212;-75
2021/07/26 08:58:00;;;;;;;11.13;8.10;;;21.90;99.90;;;;;;5093036;28;20236;-74
2021/07/26 09:00:27;;;;;;;9.13;7.03;;;21.60;99.90;;;;;;5085322;28;20245;-75
2021/07/26 09:02:55;;;;;;;10.52;8.00;;;21.10;99.90;;;;;;5086611;28;20550;-75
2021/07/26 09:05:23;;;;;;;11.02;8.35;;;21.00;99.90;;;;;;5092439;28;20746;-76
2021/07/26 09:07:50;;;;;;;12.63;7.80;;;20.90;99.90;;;;;;5092684;28;20629;-75
2021/07/26 09:10:19;;;;;;;15.45;8.98;;;20.90;99.90;;;;;;5092374;28;20197;-75
2021/07/26 09:12:48;;;;;;;12.65;8.75;;;20.90;99.90;;;;;;5092443;28;20278;-75
2021/07/26 09:15:34;;;;;;;13.93;9.10;;;20.90;99.90;;;;;;5091955;28;20532;-75
2021/07/26 09:18:05;;;;;;;13.30;8.98;;;20.90;99.90;;;;;;5092812;28;20213;-74
2021/07/26 09:20:33;;;;;;;10.15;8.07;;;21.10;99.90;;;;;;5091888;28;20201;-75
2021/07/26 09:23:12;;;;;;;14.88;9.40;;;21.10;99.90;;;;;;5092441;28;20210;-76
2021/07/26 09:25:40;;;;;;;9.35;8.45;;;21.20;99.90;;;;;;5092298;28;20308;-75
2021/07/26 09:28:09;;;;;;;18.08;9.57;;;21.10;99.90;;;;;;5081564;28;20210;-76
2021/07/26 09:30:39;;;;;;;12.00;8.88;;;21.10;99.90;;;;;;5090256;28;20278;-76
2021/07/26 09:33:16;;;;;;;9.55;7.90;;;21.20;99.90;;;;;;5092801;28;20229;-75
2021/07/26 09:35:44;;;;;;;10.32;9.05;;;21.10;99.90;;;;;;5092285;28;20213;-75
2021/07/26 09:38:13;;;;;;;11.10;8.55;;;21.20;99.90;;;;;;5092036;28;20214;-75
2021/07/26 09:40:46;;;;;;;12.63;8.05;;;21.40;99.90;;;;;;5091965;28;20241;-75
2021/07/26 09:43:18;;;;;;;11.23;8.45;;;21.30;99.90;;;;;;5091820;28;20214;-75
2021/07/26 09:45:46;;;;;;;10.10;7.80;;;21.80;99.90;;;;;;5092545;28;20306;-76
2021/07/26 09:48:16;;;;;;;10.52;9.13;;;22.20;99.90;;;;;;5091470;28;20258;-76
2021/07/26 09:50:44;;;;;;;12.75;9.10;;;22.40;99.90;;;;;;5091330;28;20209;-76
2021/07/26 09:53:13;;;;;;;9.15;8.25;;;22.50;99.90;;;;;;5091429;28;20225;-77
2021/07/26 09:55:42;;;;;;;9.90;8.45;;;22.90;99.90;;;;;;5091974;28;20206;-77
2021/07/26 09:58:11;;;;;;;8.70;7.63;;;23.30;99.90;;;;;;5091885;28;20292;-76
2021/07/26 10:00:38;;;;;;;11.55;8.38;;;23.50;99.90;;;;;;5092134;28;20237;-77
2021/07/26 10:03:07;;;;;;;11.95;8.15;;;23.30;99.90;;;;;;5077728;28;20267;-77
2021/07/26 10:05:37;;;;;;;10.00;7.60;;;23.50;99.90;;;;;;5092105;28;20209;-76
2021/07/26 10:08:05;;;;;;;11.27;8.95;;;23.80;99.90;;;;;;5092198;28;20676;-77
2021/07/26 10:10:35;;;;;;;9.63;8.25;;;23.80;99.90;;;;;;5091503;28;20654;-76
2021/07/26 10:13:02;;;;;;;10.45;6.82;;;23.90;99.90;;;;;;5091646;28;20233;-76
2021/07/26 10:15:31;;;;;;;10.15;8.23;;;24.10;99.90;;;;;;5090856;28;20209;-77
2021/07/26 10:17:58;;;;;;;9.60;7.20;;;24.10;99.90;;;;;;5091872;28;20231;-76
2021/07/26 10:20:27;;;;;;;9.63;7.60;;;24.10;99.90;;;;;;5090338;28;20201;-76
2021/07/26 10:23:04;;;;;;;9.00;7.93;;;24.50;99.90;;;;;;5091605;28;20259;-76
2021/07/26 10:25:38;;;;;;;7.50;6.40;;;25.10;99.90;;;;;;5090817;28;20217;-76
2021/07/26 10:28:11;;;;;;;7.25;6.55;;;25.00;99.90;;;;;;5091619;28;20205;-77
2021/07/26 10:30:39;;;;;;;7.28;6.55;;;24.90;99.90;;;;;;5091096;28;20706;-77
2021/07/26 10:33:07;;;;;;;8.13;6.95;;;24.80;99.90;;;;;;5091416;28;20708;-76
2021/07/26 10:35:38;;;;;;;7.90;6.65;;;24.10;99.90;;;;;;5090730;28;20206;-76
2021/07/26 10:38:08;;;;;;;8.98;6.72;;;24.00;99.90;;;;;;5091497;28;20213;-76
2021/07/26 10:40:42;;;;;;;11.07;7.32;;;24.40;99.90;;;;;;5091315;28;20262;-76
2021/07/26 10:43:15;;;;;;;8.52;7.43;;;24.00;99.90;;;;;;5091074;28;20202;-76
2021/07/26 10:46:00;;;;;;;7.97;7.18;;;24.00;99.90;;;;;;5091259;28;20375;-76
2021/07/26 10:48:51;;;;;;;9.77;8.15;;;23.90;99.90;;;;;;5090801;28;20201;-74
2021/07/26 10:51:40;;;;;;;8.15;6.47;;;24.30;99.90;;;;;;5088043;28;20212;-75
2021/07/26 10:54:10;;;;;;;10.30;7.15;;;24.60;99.90;;;;;;5091391;28;20236;-75
2021/07/26 10:57:06;;;;;;;6.63;6.03;;;24.90;99.90;;;;;;5091037;28;20229;-74
2021/07/26 11:00:11;;;;;;;9.00;6.45;;;24.70;99.90;;;;;;5091013;28;20213;-74
2021/07/26 11:02:39;;;;;;;9.35;6.57;;;25.70;99.90;;;;;;5090733;28;20661;-74
2021/07/26 11:05:33;;;;;;;7.20;6.22;;;26.30;99.90;;;;;;5090873;28;20255;-74
2021/07/26 11:08:25;;;;;;;10.68;6.60;;;26.20;99.90;;;;;;5090693;28;20292;-74
2021/07/26 11:10:57;;;;;;;6.63;5.93;;;26.20;99.90;;;;;;5068771;28;20246;-75
2021/07/26 11:13:24;;;;;;;7.22;5.80;;;27.00;99.90;;;;;;5089904;28;20654;-75
2021/07/26 11:15:52;;;;;;;6.72;6.03;;;27.40;99.90;;;;;;5090715;28;20210;-75
2021/07/26 11:18:21;;;;;;;7.20;6.05;;;26.80;99.90;;;;;;5090128;28;20259;-74
2021/07/26 11:21:16;;;;;;;6.60;5.78;;;26.70;99.90;;;;;;5090530;28;20677;-74
2021/07/26 11:23:52;;;;;;;7.47;5.65;;;26.90;99.90;;;;;;5090240;28;20202;-74
2021/07/26 11:26:23;;;;;;;9.27;5.38;;;26.90;99.90;;;;;;5089968;28;20217;-75
2021/07/26 11:28:52;;;;;;;7.00;5.72;;;26.60;99.90;;;;;;5090582;28;20288;-75
2021/07/26 11:31:27;;;;;;;8.32;6.53;;;26.60;99.90;;;;;;5092113;28;20259;-74
2021/07/26 11:34:04;;;;;;;6.70;5.38;;;26.70;99.90;;;;;;5094067;28;20703;-74
2021/07/26 11:36:31;;;;;;;6.55;5.40;;;26.60;99.90;;;;;;5094080;28;20726;-74
2021/07/26 11:38:59;;;;;;;6.05;5.32;;;26.60;99.90;;;;;;5094321;28;20680;-74
2021/07/26 11:41:28;;;;;;;5.45;4.95;;;26.30;99.90;;;;;;5094396;28;20616;-74
2021/07/26 11:43:55;;;;;;;9.55;5.45;;;27.10;99.90;;;;;;5094362;28;20564;-75
2021/07/26 11:46:24;;;;;;;8.75;5.82;;;27.20;99.90;;;;;;5093689;28;20680;-74
2021/07/26 11:48:55;;;;;;;8.35;6.68;;;26.40;99.90;;;;;;5094306;28;20255;-74
2021/07/26 11:51:30;;;;;;;6.78;5.82;;;26.80;99.90;;;;;;5093735;28;20616;-74
2021/07/26 11:54:01;;;;;;;7.93;6.07;;;27.00;99.90;;;;;;5094620;28;20224;-75
2021/07/26 11:56:30;;;;;;;6.55;5.28;;;27.20;99.90;;;;;;5093557;28;20212;-74
2021/07/26 11:59:19;;;;;;;6.80;5.72;;;26.50;99.90;;;;;;5094455;28;20209;-74
2021/07/26 12:01:49;;;;;;;7.15;6.45;;;26.60;99.90;;;;;;5093593;28;20619;-74
2021/07/26 12:04:17;;;;;;;8.77;5.55;;;25.90;99.90;;;;;;5094060;28;20209;-75
2021/07/26 12:07:03;;;;;;;6.03;5.32;;;25.50;99.90;;;;;;5094091;28;20251;-75
2021/07/26 12:09:31;;;;;;;6.20;5.38;;;25.40;99.90;;;;;;5093721;28;20213;-75
2021/07/26 12:12:12;;;;;;;8.38;5.93;;;25.50;99.90;;;;;;5079609;28;20205;-75
2021/07/26 12:14:40;;;;;;;6.40;5.68;;;25.20;99.90;;;;;;5094118;28;20591;-75
2021/07/26 12:17:10;;;;;;;6.57;5.18;;;25.50;99.90;;;;;;5093985;28;20247;-75
2021/07/26 12:19:38;;;;;;;18.35;6.97;;;25.70;99.90;;;;;;5094290;28;20205;-74
2021/07/26 12:22:20;;;;;;;4.95;4.45;;;25.90;99.90;;;;;;5093777;28;20251;-75
2021/07/26 12:24:58;;;;;;;8.38;4.75;;;26.50;99.90;;;;;;5093539;28;20635;-75
2021/07/26 12:27:37;;;;;;;6.35;4.93;;;26.60;99.90;;;;;;5093334;28;20201;-75
2021/07/26 12:30:09;;;;;;;7.72;5.57;;;26.20;99.90;;;;;;5093798;28;20292;-74
2021/07/26 12:32:50;;;;;;;7.85;5.35;;;25.60;99.90;;;;;;5093971;28;20205;-75
2021/07/26 12:35:28;;;;;;;7.30;5.00;;;24.70;99.90;;;;;;5093386;28;20262;-75
2021/07/26 12:38:02;;;;;;;6.07;5.22;;;24.70;99.90;;;;;;5068773;28;20201;-75
2021/07/26 12:40:29;;;;;;;6.60;6.00;;;24.90;99.90;;;;;;5092831;28;20205;-76
2021/07/26 12:43:27;;;;;;;14.02;5.65;;;24.90;99.90;;;;;;5092608;28;20664;-75
2021/07/26 12:45:59;;;;;;;8.98;5.72;;;24.80;99.90;;;;;;5088484;28;20258;-76
2021/07/26 12:48:27;;;;;;;5.65;5.10;;;24.90;99.90;;;;;;5092879;28;20291;-76
2021/07/26 12:50:56;;;;;;;7.93;5.43;;;25.00;99.90;;;;;;5093422;28;20251;-75
2021/07/26 12:53:23;;;;;;;6.30;5.70;;;25.40;99.90;;;;;;5092694;28;20225;-75